Webster, Iowa
Current Conditions -  °F | °C
As of 11:35 AM on Friday 24 Oct 2014 (Local Time) from KOOA Reporting Station
Haze Haze  
Wind Chill: 58°   Ceiling: 300
Heat Index: 58°   Visibility: 4mi
Dew Point: 58°   Wind: 12mph
Humidity: 98%   Direction: 160°SSE
Pressure: 30.01"   Gusts: 17mph
Location:  41.44°N, 92.17°W
Report Text: KOOA 241635Z AUTO 16010G15KT 4SM BR OVC003 15/14 A3001 RMK AO2 T01460143
Loading
Personal Weather Stations






























Interactive Weather Map
Tropical Storm Tracking
New forecast layout! Learn more

10-Day Weather Forecast

Advertisements
Track Severe Weather on mobile